createdAt,value
2023-03-12T00:00:14.245Z,93.68
2023-03-12T00:02:42.231Z,93.30
2023-03-12T00:05:10.525Z,95.23
2023-03-12T00:07:38.814Z,94.27
2023-03-12T00:10:06.772Z,95.42
2023-03-12T00:12:36.953Z,94.94
2023-03-12T00:15:05.166Z,94.74
2023-03-12T00:17:32.792Z,95.01
2023-03-12T00:20:00.374Z,94.84
2023-03-12T00:22:28.143Z,94.74
2023-03-12T00:24:57.057Z,94.61
2023-03-12T00:27:25.032Z,95.30
2023-03-12T00:29:53.022Z,94.50
2023-03-12T00:32:20.910Z,95.39
2023-03-12T00:34:53.619Z,95.94
2023-03-12T00:37:21.412Z,95.86
2023-03-12T00:39:49.957Z,95.47
2023-03-12T00:42:17.964Z,94.35
2023-03-12T00:44:45.843Z,93.65
2023-03-12T00:47:13.459Z,93.93
2023-03-12T00:49:41.303Z,93.98
2023-03-12T00:52:08.942Z,93.26
2023-03-12T00:54:36.532Z,93.77
2023-03-12T00:57:04.284Z,93.65
2023-03-12T00:59:32.201Z,94.18
2023-03-12T01:01:59.747Z,94.54
2023-03-12T01:04:28.329Z,93.86
2023-03-12T01:06:56.826Z,93.47
2023-03-12T01:09:24.786Z,92.18
2023-03-12T01:11:52.421Z,92.01
2023-03-12T01:14:20.101Z,93.50
2023-03-12T01:16:49.842Z,92.84
2023-03-12T01:19:19.395Z,92.99
2023-03-12T01:21:47.052Z,93.46
2023-03-12T01:24:14.580Z,92.42
2023-03-12T01:26:42.090Z,91.29
2023-03-12T01:29:09.633Z,91.27
2023-03-12T01:31:37.312Z,91.36
2023-03-12T01:34:05.171Z,91.91
2023-03-12T01:36:32.771Z,92.64
2023-03-12T01:39:00.415Z,92.83
2023-03-12T01:41:28.986Z,93.42
2023-03-12T01:43:56.519Z,92.57
2023-03-12T01:46:31.138Z,93.74
2023-03-12T01:49:03.216Z,93.13
2023-03-12T01:51:56.638Z,92.75
2023-03-12T01:54:32.722Z,93.94
2023-03-12T01:57:00.538Z,93.53
2023-03-12T01:59:52.329Z,93.32
2023-03-12T02:02:23.789Z,93.79
2023-03-12T02:04:52.062Z,94.66
2023-03-12T02:07:19.815Z,93.90
2023-03-12T02:09:50.117Z,92.64
2023-03-12T02:12:18.174Z,92.90
2023-03-12T02:14:45.808Z,94.20
2023-03-12T02:17:14.501Z,92.74
2023-03-12T02:20:13.926Z,92.52
2023-03-12T02:22:42.616Z,92.41
2023-03-12T02:25:37.783Z,93.14
2023-03-12T02:28:10.214Z,91.40
2023-03-12T02:30:42.845Z,93.57
2023-03-12T02:33:24.535Z,93.83
2023-03-12T02:35:52.431Z,93.12
2023-03-12T02:38:40.232Z,92.33
2023-03-12T02:41:24.689Z,92.64
2023-03-12T02:44:19.611Z,93.35
2023-03-12T02:46:51.889Z,93.01
2023-03-12T02:49:20.942Z,91.66
2023-03-12T02:51:49.723Z,93.33
2023-03-12T02:54:18.245Z,92.99
2023-03-12T02:56:46.665Z,93.61
2023-03-12T02:59:14.963Z,93.33
2023-03-12T03:01:44.633Z,93.57
2023-03-12T03:04:12.586Z,93.74
2023-03-12T03:06:41.412Z,94.60
2023-03-12T03:09:10.891Z,93.91
2023-03-12T03:11:38.969Z,94.53
2023-03-12T03:14:07.869Z,93.96
2023-03-12T03:16:36.212Z,94.12
2023-03-12T03:19:06.325Z,95.17
2023-03-12T03:21:33.888Z,96.33
2023-03-12T03:24:03.279Z,96.26
2023-03-12T03:26:31.144Z,95.67
2023-03-12T03:29:03.826Z,95.72
2023-03-12T03:31:33.433Z,96.70
2023-03-12T03:34:01.574Z,95.88
2023-03-12T03:36:29.573Z,95.94
2023-03-12T03:39:12.036Z,96.19
2023-03-12T03:41:40.437Z,96.56
2023-03-12T03:44:08.768Z,96.06
2023-03-12T03:46:38.762Z,95.95
2023-03-12T03:49:10.058Z,95.33
2023-03-12T03:51:42.802Z,95.39
2023-03-12T03:54:13.522Z,94.86
2023-03-12T03:56:42.817Z,96.16
2023-03-12T03:59:13.502Z,95.49
2023-03-12T04:01:43.758Z,95.04
2023-03-12T04:04:11.686Z,95.46
2023-03-12T04:06:39.411Z,95.44
2023-03-12T04:09:07.109Z,95.09
2023-03-12T04:11:37.299Z,94.44
2023-03-12T04:14:06.801Z,95.17
2023-03-12T04:16:38.022Z,96.32
2023-03-12T04:19:06.569Z,96.75
2023-03-12T04:21:34.225Z,96.66
2023-03-12T04:24:01.813Z,96.50
2023-03-12T04:26:33.591Z,96.63
2023-03-12T04:29:05.840Z,96.25
2023-03-12T04:31:34.450Z,96.39
2023-03-12T04:34:02.146Z,95.15
2023-03-12T04:36:30.197Z,94.96
2023-03-12T04:38:58.334Z,95.87
2023-03-12T04:41:37.009Z,96.54
2023-03-12T04:44:12.651Z,95.53
2023-03-12T04:46:41.350Z,96.32
2023-03-12T04:49:09.992Z,95.45
2023-03-12T04:51:39.384Z,95.65
2023-03-12T04:54:10.327Z,95.50
2023-03-12T04:56:39.921Z,95.33
2023-03-12T04:59:10.526Z,95.77
2023-03-12T05:01:39.883Z,93.65
2023-03-12T05:04:14.089Z,92.65
2023-03-12T05:06:41.742Z,94.79
2023-03-12T05:09:09.342Z,94.97
2023-03-12T05:11:39.846Z,96.66
2023-03-12T05:14:13.809Z,96.60
2023-03-12T05:16:43.305Z,97.28
2023-03-12T05:19:12.271Z,97.54
2023-03-12T05:21:41.239Z,97.21
2023-03-12T05:24:10.328Z,97.69
2023-03-12T05:26:38.369Z,97.13
2023-03-12T05:29:11.698Z,96.92
2023-03-12T05:31:39.836Z,96.50
2023-03-12T05:34:10.376Z,95.52
2023-03-12T05:36:39.956Z,96.03
2023-03-12T05:39:08.422Z,97.24
2023-03-12T05:41:36.523Z,95.89
2023-03-12T05:44:13.644Z,95.01
2023-03-12T05:46:43.532Z,96.68
2023-03-12T05:49:12.405Z,96.75
2023-03-12T05:51:40.115Z,96.38
2023-03-12T05:54:08.884Z,95.06
2023-03-12T05:56:37.062Z,95.25
2023-03-12T05:59:05.317Z,94.54
2023-03-12T06:01:33.269Z,94.80
2023-03-12T06:04:02.888Z,92.38
2023-03-12T06:06:35.129Z,91.73
2023-03-12T06:09:04.097Z,90.22
2023-03-12T06:11:32.761Z,88.92
2023-03-12T06:14:00.424Z,89.79
2023-03-12T06:16:28.527Z,89.49
2023-03-12T06:18:57.967Z,88.86
2023-03-12T06:21:27.331Z,89.17
2023-03-12T06:23:55.211Z,89.37
2023-03-12T06:26:28.046Z,89.65
2023-03-12T06:28:57.924Z,90.08
2023-03-12T06:31:25.656Z,91.31
2023-03-12T06:33:54.087Z,91.38
2023-03-12T06:36:23.442Z,91.76
2023-03-12T06:38:51.008Z,91.36
2023-03-12T06:41:20.502Z,90.31
2023-03-12T06:43:48.601Z,91.01
2023-03-12T06:46:19.303Z,89.90
2023-03-12T06:48:49.059Z,89.25
2023-03-12T06:51:16.987Z,88.63
2023-03-12T06:53:45.192Z,88.49
2023-03-12T06:56:12.946Z,88.30
2023-03-12T06:58:41.102Z,87.24
2023-03-12T07:01:08.671Z,86.16
2023-03-12T07:03:36.700Z,85.48
2023-03-12T07:06:04.735Z,85.69
2023-03-12T07:08:33.400Z,84.94
2023-03-12T07:11:01.966Z,84.18
2023-03-12T07:13:30.383Z,84.40
2023-03-12T07:16:01.014Z,83.30
2023-03-12T07:18:28.594Z,83.25
2023-03-12T07:20:56.738Z,82.42
2023-03-12T07:23:24.850Z,82.52
2023-03-12T07:25:52.559Z,82.11
2023-03-12T07:28:20.880Z,83.01
2023-03-12T07:30:52.761Z,82.11
2023-03-12T07:33:21.298Z,81.06
2023-03-12T07:35:51.515Z,79.74
2023-03-12T07:38:20.096Z,80.51
2023-03-12T07:40:54.704Z,80.46
2023-03-12T07:43:23.917Z,78.95
2023-03-12T07:45:54.578Z,78.71
2023-03-12T07:48:22.609Z,78.51
2023-03-12T07:50:50.940Z,78.76
2023-03-12T07:53:18.582Z,78.20
2023-03-12T07:55:46.837Z,78.02
2023-03-12T07:58:16.415Z,78.49
2023-03-12T08:00:46.879Z,77.19
2023-03-12T08:03:14.899Z,77.10
2023-03-12T08:05:42.759Z,77.50
2023-03-12T08:08:11.166Z,77.01
2023-03-12T08:10:39.044Z,77.37
2023-03-12T08:13:08.190Z,79.36
2023-03-12T08:15:36.261Z,77.26
2023-03-12T08:18:06.577Z,76.82
2023-03-12T08:20:35.362Z,75.84
2023-03-12T08:23:03.022Z,74.76
2023-03-12T08:25:30.646Z,74.86
2023-03-12T08:27:58.359Z,75.09
2023-03-12T08:30:29.104Z,76.78
2023-03-12T08:32:58.160Z,75.51
2023-03-12T08:35:25.850Z,73.40
2023-03-12T08:37:53.497Z,72.80
2023-03-12T08:40:35.457Z,72.06
2023-03-12T08:43:03.592Z,69.64
2023-03-12T08:45:31.262Z,68.27
2023-03-12T08:47:59.039Z,67.44
2023-03-12T08:50:29.492Z,68.13
2023-03-12T08:52:57.268Z,68.02
2023-03-12T08:55:26.378Z,67.90
2023-03-12T08:57:55.272Z,67.67
2023-03-12T09:00:23.060Z,69.01
2023-03-12T09:02:54.401Z,68.47
2023-03-12T09:05:22.334Z,67.41
2023-03-12T09:07:50.892Z,67.40
2023-03-12T09:10:19.841Z,67.77
2023-03-12T09:12:47.546Z,70.05
2023-03-12T09:15:19.095Z,69.05
2023-03-12T09:17:48.180Z,69.71
2023-03-12T09:20:15.872Z,68.74
2023-03-12T09:22:43.501Z,68.40
2023-03-12T09:25:11.424Z,69.67
2023-03-12T09:27:43.831Z,68.16
2023-03-12T09:30:16.922Z,65.82
2023-03-12T09:32:47.273Z,65.67
2023-03-12T09:35:19.503Z,66.72
2023-03-12T09:38:09.222Z,68.06
2023-03-12T09:40:55.756Z,68.08
2023-03-12T09:43:48.014Z,67.84
2023-03-12T09:46:45.616Z,68.21
2023-03-12T09:49:43.545Z,67.43
2023-03-12T09:52:24.727Z,66.71
2023-03-12T09:55:18.092Z,65.59
2023-03-12T09:57:51.472Z,66.52
2023-03-12T10:00:20.856Z,65.58
2023-03-12T10:03:03.721Z,66.26
2023-03-12T10:05:38.455Z,66.98
2023-03-12T10:08:24.215Z,65.41
2023-03-12T10:11:03.016Z,63.54
2023-03-12T10:14:08.580Z,62.82
2023-03-12T10:17:04.832Z,64.74
2023-03-12T10:19:35.020Z,64.71
2023-03-12T10:22:14.384Z,65.22
2023-03-12T10:24:51.616Z,66.30
2023-03-12T10:27:19.250Z,67.29
2023-03-12T10:29:48.676Z,66.79
2023-03-12T10:32:38.746Z,65.92
2023-03-12T10:35:26.265Z,66.62
2023-03-12T10:37:56.448Z,66.98
2023-03-12T10:40:25.981Z,66.90
2023-03-12T10:42:58.917Z,66.49
2023-03-12T10:45:39.066Z,66.71
2023-03-12T10:48:08.958Z,66.93
2023-03-12T10:50:38.137Z,67.45
2023-03-12T10:53:30.033Z,68.44
2023-03-12T10:55:59.122Z,69.18
2023-03-12T10:58:26.879Z,68.23
2023-03-12T11:00:57.044Z,67.93
2023-03-12T11:03:29.533Z,68.30
2023-03-12T11:06:02.344Z,67.58
2023-03-12T11:08:35.331Z,67.62
2023-03-12T11:11:03.704Z,67.66
2023-03-12T11:13:38.137Z,67.99
2023-03-12T11:16:17.975Z,68.35
2023-03-12T11:19:03.873Z,68.62
2023-03-12T11:21:33.635Z,69.49
2023-03-12T11:24:12.055Z,69.13
2023-03-12T11:26:45.037Z,68.95
2023-03-12T11:29:33.394Z,68.39
2023-03-12T11:32:24.624Z,66.38
2023-03-12T11:34:53.253Z,66.38
2023-03-12T11:37:43.035Z,66.80
2023-03-12T11:40:32.173Z,66.78
2023-03-12T11:43:32.410Z,66.58
2023-03-12T11:46:34.877Z,67.26
2023-03-12T11:49:14.780Z,67.87
2023-03-12T11:51:51.623Z,67.50
2023-03-12T11:55:05.486Z,68.94
2023-03-12T11:57:35.567Z,68.68
2023-03-12T12:00:41.122Z,70.13
2023-03-12T12:03:37.194Z,71.53
2023-03-12T12:06:18.694Z,72.30
2023-03-12T12:08:57.881Z,71.64
2023-03-12T12:11:41.482Z,71.71
2023-03-12T12:14:26.225Z,72.83
2023-03-12T12:17:12.953Z,72.91
2023-03-12T12:19:55.375Z,73.18
2023-03-12T12:22:37.741Z,73.27
2023-03-12T12:25:41.346Z,72.47
2023-03-12T12:28:24.285Z,71.68
2023-03-12T12:30:55.194Z,70.08
2023-03-12T12:34:01.590Z,70.22
2023-03-12T12:36:31.758Z,68.95
2023-03-12T12:39:01.708Z,68.21
2023-03-12T12:41:32.397Z,69.09
2023-03-12T12:44:03.137Z,68.32
2023-03-12T12:46:43.175Z,68.63
2023-03-12T12:49:13.365Z,68.10
2023-03-12T12:51:48.240Z,67.37
2023-03-12T12:54:18.845Z,66.26
2023-03-12T12:56:58.893Z,64.60
2023-03-12T12:59:31.746Z,64.52
2023-03-12T13:02:00.391Z,64.47
2023-03-12T13:04:36.388Z,64.61
2023-03-12T13:07:13.088Z,64.73
2023-03-12T13:09:43.832Z,65.56
2023-03-12T13:12:25.976Z,65.97
2023-03-12T13:14:54.193Z,65.37
2023-03-12T13:17:21.982Z,65.94
2023-03-12T13:20:18.137Z,65.97
2023-03-12T13:23:12.562Z,66.52
2023-03-12T13:25:40.125Z,67.19
2023-03-12T13:28:34.998Z,67.50
2023-03-12T13:31:26.887Z,67.02
2023-03-12T13:34:09.169Z,67.42
2023-03-12T13:36:42.109Z,67.92
2023-03-12T13:39:15.926Z,67.30
2023-03-12T13:41:52.389Z,65.83
2023-03-12T13:44:23.267Z,65.52
2023-03-12T13:47:32.421Z,65.02
2023-03-12T13:50:00.634Z,65.02
2023-03-12T13:52:34.381Z,65.49
2023-03-12T13:55:16.567Z,65.04
2023-03-12T13:57:46.752Z,64.68
2023-03-12T14:00:30.148Z,65.25
2023-03-12T14:03:19.997Z,65.89
2023-03-12T14:05:52.045Z,65.47
2023-03-12T14:08:51.556Z,66.03
2023-03-12T14:11:31.322Z,66.48
2023-03-12T14:14:04.897Z,67.42
2023-03-12T14:16:51.952Z,67.44
2023-03-12T14:19:33.662Z,68.63
2023-03-12T14:22:04.265Z,68.50
2023-03-12T14:24:37.821Z,68.24
2023-03-12T14:27:14.572Z,67.18
2023-03-12T14:29:47.061Z,67.16
2023-03-12T14:32:29.096Z,67.67
2023-03-12T14:35:22.173Z,67.14
2023-03-12T14:37:49.629Z,66.93
2023-03-12T14:40:46.949Z,66.58
2023-03-12T14:43:28.340Z,67.63
2023-03-12T14:45:57.281Z,67.82
2023-03-12T14:48:28.949Z,68.37
2023-03-12T14:50:57.577Z,68.46
2023-03-12T14:53:27.921Z,67.51
2023-03-12T14:56:12.385Z,67.21
2023-03-12T14:58:44.843Z,66.73
2023-03-12T15:01:30.279Z,66.80
2023-03-12T15:04:02.367Z,67.18
2023-03-12T15:06:32.164Z,67.76
2023-03-12T15:09:02.366Z,68.38
2023-03-12T15:11:31.298Z,67.75
2023-03-12T15:14:07.607Z,68.62
2023-03-12T15:16:37.577Z,68.51
2023-03-12T15:19:06.207Z,68.25
2023-03-12T15:21:35.009Z,68.92
2023-03-12T15:24:04.345Z,69.29
2023-03-12T15:26:36.552Z,69.64
2023-03-12T15:29:27.902Z,69.70
2023-03-12T15:31:59.961Z,69.88
2023-03-12T15:34:35.658Z,70.40
2023-03-12T15:37:20.104Z,69.82
2023-03-12T15:39:53.934Z,69.51
2023-03-12T15:42:23.704Z,69.90
2023-03-12T15:44:58.849Z,70.85
2023-03-12T15:47:30.760Z,70.56
2023-03-12T15:50:01.140Z,71.26
2023-03-12T15:52:31.192Z,71.37
2023-03-12T15:55:21.435Z,70.94
2023-03-12T15:57:49.548Z,71.46
2023-03-12T16:00:41.736Z,72.06
2023-03-12T16:03:16.655Z,71.73
2023-03-12T16:05:44.690Z,72.35
2023-03-12T16:08:20.946Z,73.05
2023-03-12T16:10:49.701Z,72.03
2023-03-12T16:13:20.029Z,71.82
2023-03-12T16:15:52.744Z,72.41
2023-03-12T16:18:21.826Z,72.41
2023-03-12T16:20:50.849Z,71.98
2023-03-12T16:23:21.692Z,72.39
2023-03-12T16:25:53.517Z,72.67
2023-03-12T16:28:21.217Z,72.19
2023-03-12T16:30:49.801Z,71.73
2023-03-12T16:33:19.789Z,71.85
2023-03-12T16:35:47.872Z,72.29
2023-03-12T16:38:15.950Z,72.40
2023-03-12T16:40:47.187Z,72.65
2023-03-12T16:43:20.102Z,72.55
2023-03-12T16:45:47.923Z,72.29
2023-03-12T16:48:17.506Z,72.41
2023-03-12T16:50:53.265Z,72.65
2023-03-12T16:53:22.043Z,72.69
2023-03-12T16:55:55.718Z,72.64
2023-03-12T16:58:24.523Z,72.93
2023-03-12T17:00:53.144Z,72.37
2023-03-12T17:03:36.477Z,72.76
2023-03-12T17:06:06.527Z,72.91
2023-03-12T17:08:36.170Z,72.63
2023-03-12T17:11:14.716Z,73.31
2023-03-12T17:13:42.263Z,72.08
2023-03-12T17:16:12.496Z,71.58
2023-03-12T17:18:40.841Z,72.30
2023-03-12T17:21:11.647Z,71.86
2023-03-12T17:23:39.318Z,71.71
2023-03-12T17:26:06.998Z,72.07
2023-03-12T17:28:34.748Z,71.40
2023-03-12T17:31:02.471Z,72.61
2023-03-12T17:33:30.446Z,72.45
2023-03-12T17:36:02.652Z,72.22
2023-03-12T17:38:31.675Z,73.58
2023-03-12T17:40:59.755Z,73.38
2023-03-12T17:43:28.019Z,72.94
2023-03-12T17:45:55.731Z,73.55
2023-03-12T17:48:24.900Z,72.98
2023-03-12T17:50:52.426Z,73.11
2023-03-12T17:53:19.931Z,72.50
2023-03-12T17:55:48.254Z,72.27
2023-03-12T17:58:16.800Z,72.01
2023-03-12T18:00:46.612Z,71.24
2023-03-12T18:03:14.421Z,71.64
2023-03-12T18:05:43.224Z,71.92
2023-03-12T18:08:11.270Z,71.89
2023-03-12T18:10:40.678Z,71.89
2023-03-12T18:13:08.731Z,71.84
2023-03-12T18:15:37.330Z,71.51
2023-03-12T18:18:13.919Z,71.54
2023-03-12T18:20:43.341Z,70.96
2023-03-12T18:23:11.465Z,71.69
2023-03-12T18:25:39.096Z,71.10
2023-03-12T18:28:06.824Z,71.26
2023-03-12T18:30:34.482Z,71.30
2023-03-12T18:33:03.208Z,70.85
2023-03-12T18:35:31.237Z,69.96
2023-03-12T18:37:59.178Z,71.02
2023-03-12T18:40:29.227Z,70.95
2023-03-12T18:43:00.246Z,71.89
2023-03-12T18:45:28.019Z,71.45
2023-03-12T18:47:56.424Z,71.61
2023-03-12T18:50:25.125Z,72.06
2023-03-12T18:52:52.799Z,71.68
2023-03-12T18:55:20.434Z,71.28
2023-03-12T18:57:48.150Z,70.51
2023-03-12T19:00:20.119Z,69.75
2023-03-12T19:02:48.912Z,69.64
2023-03-12T19:05:16.625Z,69.01
2023-03-12T19:07:44.370Z,68.85
2023-03-12T19:10:12.361Z,68.70
2023-03-12T19:12:51.424Z,68.56
2023-03-12T19:15:24.115Z,67.79
2023-03-12T19:17:54.327Z,67.96
2023-03-12T19:20:22.120Z,68.02
2023-03-12T19:22:50.073Z,68.00
2023-03-12T19:25:20.115Z,68.09
2023-03-12T19:27:50.491Z,67.63
2023-03-12T19:30:18.397Z,66.98
2023-03-12T19:32:46.120Z,67.44
2023-03-12T19:35:14.542Z,66.76
2023-03-12T19:37:42.684Z,67.34
2023-03-12T19:40:11.151Z,67.76
2023-03-12T19:42:39.423Z,67.27
2023-03-12T19:45:07.379Z,67.38
2023-03-12T19:47:35.944Z,68.32
2023-03-12T19:50:04.462Z,68.08
2023-03-12T19:52:33.115Z,67.83
2023-03-12T19:55:05.016Z,68.04
2023-03-12T19:57:35.450Z,68.42
2023-03-12T20:00:07.188Z,69.81
2023-03-12T20:02:36.583Z,69.72
2023-03-12T20:05:07.033Z,69.93
2023-03-12T20:07:35.272Z,70.16
2023-03-12T20:10:05.827Z,70.52
2023-03-12T20:12:33.540Z,70.45
2023-03-12T20:15:01.212Z,70.04
2023-03-12T20:17:29.468Z,70.85
2023-03-12T20:19:58.275Z,71.26
2023-03-12T20:22:26.370Z,71.39
2023-03-12T20:24:55.786Z,71.28
2023-03-12T20:27:23.352Z,71.16
2023-03-12T20:29:50.989Z,71.20
2023-03-12T20:32:21.363Z,71.22
2023-03-12T20:34:49.047Z,71.71
2023-03-12T20:37:18.141Z,71.19
2023-03-12T20:39:46.402Z,70.74
2023-03-12T20:42:13.965Z,70.80
2023-03-12T20:44:41.880Z,70.39
2023-03-12T20:47:09.410Z,70.81
2023-03-12T20:49:37.123Z,70.65
2023-03-12T20:52:05.062Z,70.65
2023-03-12T20:54:33.033Z,70.26
2023-03-12T20:57:00.580Z,70.75
2023-03-12T20:59:28.074Z,70.13
2023-03-12T21:01:55.700Z,70.54
2023-03-12T21:04:23.320Z,70.39
2023-03-12T21:06:51.855Z,70.02
2023-03-12T21:09:21.698Z,70.72
2023-03-12T21:11:50.274Z,70.29
2023-03-12T21:14:17.905Z,70.92
2023-03-12T21:16:46.466Z,70.17
2023-03-12T21:19:15.070Z,69.73
2023-03-12T21:21:43.343Z,70.74
2023-03-12T21:24:11.308Z,69.74
2023-03-12T21:26:46.700Z,70.01
2023-03-12T21:29:14.295Z,70.16
2023-03-12T21:31:41.956Z,69.75
2023-03-12T21:34:09.846Z,69.84
2023-03-12T21:36:37.570Z,69.98
2023-03-12T21:39:05.856Z,70.09
2023-03-12T21:41:33.422Z,71.00
2023-03-12T21:44:02.849Z,71.17
2023-03-12T21:46:30.809Z,71.03
2023-03-12T21:48:58.897Z,71.09
2023-03-12T21:51:26.518Z,70.87
2023-03-12T21:53:58.101Z,71.39
2023-03-12T21:56:29.434Z,70.44
2023-03-12T21:58:57.461Z,70.73
2023-03-12T22:01:25.266Z,70.50
2023-03-12T22:03:54.200Z,71.15
2023-03-12T22:06:21.883Z,71.06
2023-03-12T22:08:52.416Z,71.28
2023-03-12T22:11:20.925Z,71.76
2023-03-12T22:13:48.691Z,71.98
2023-03-12T22:16:16.378Z,71.53
2023-03-12T22:18:45.236Z,71.38
2023-03-12T22:21:20.073Z,72.55
2023-03-12T22:23:51.138Z,71.97
2023-03-12T22:26:19.854Z,71.95
2023-03-12T22:28:52.538Z,72.31
2023-03-12T22:31:20.797Z,72.75
2023-03-12T22:33:48.696Z,72.93
2023-03-12T22:36:16.489Z,72.98
2023-03-12T22:38:44.382Z,73.27
2023-03-12T22:41:20.688Z,73.19
2023-03-12T22:43:49.316Z,73.62
2023-03-12T22:46:20.321Z,72.93
2023-03-12T22:48:52.596Z,72.56
2023-03-12T22:51:20.168Z,71.88
2023-03-12T22:53:48.421Z,72.44
2023-03-12T22:56:16.002Z,72.97
2023-03-12T22:58:43.677Z,72.58
2023-03-12T23:01:12.763Z,72.72
2023-03-12T23:03:41.268Z,72.08
2023-03-12T23:06:17.069Z,72.44
2023-03-12T23:08:47.105Z,72.73
2023-03-12T23:11:25.540Z,73.53
2023-03-12T23:13:54.484Z,73.55
2023-03-12T23:16:24.039Z,73.60
2023-03-12T23:18:55.323Z,73.66
2023-03-12T23:21:23.706Z,73.00
2023-03-12T23:23:51.505Z,73.80
2023-03-12T23:26:26.958Z,74.40
2023-03-12T23:28:55.404Z,73.88
2023-03-12T23:31:24.050Z,74.73
2023-03-12T23:33:51.943Z,74.44
2023-03-12T23:36:30.999Z,74.65
2023-03-12T23:38:58.568Z,75.03
2023-03-12T23:41:29.436Z,75.02
2023-03-12T23:43:59.472Z,74.93
2023-03-12T23:46:27.605Z,75.05
2023-03-12T23:49:00.205Z,75.09
2023-03-12T23:51:32.433Z,75.43
2023-03-12T23:54:02.309Z,75.06
2023-03-12T23:56:35.144Z,74.99
2023-03-12T23:59:03.319Z,74.86
